Time;durP1;ratioP1;P1;durP2;ratioP2;P2;SDS_P1;SDS_P2;PMS_P1;PMS_P2;Temp;Humidity;BMP_temperature;BMP_pressure;BME280_temperature;BME280_humidity;BME280_pressure;Samples;Min_cycle;Max_cycle;Signal;HPM_P1;HPM_P2
2021/12/21 00:01:19;;;;;;;10.25;4.57;;;;;;;;;;5032789;28;20114;-79
2021/12/21 00:03:46;;;;;;;9.18;4.57;;;;;;;;;;5034754;28;20095;-79
2021/12/21 00:06:14;;;;;;;8.95;5.18;;;;;;;;;;5043521;28;20104;-77
2021/12/21 00:08:41;;;;;;;9.50;4.72;;;;;;;;;;5038494;28;20041;-77
2021/12/21 00:11:08;;;;;;;8.88;5.32;;;;;;;;;;5043109;28;20041;-78
2021/12/21 00:13:53;;;;;;;10.02;5.60;;;;;;;;;;5041781;28;20045;-78
2021/12/21 00:16:41;;;;;;;10.90;5.38;;;;;;;;;;5047277;28;20060;-79
2021/12/21 00:19:22;;;;;;;10.07;5.57;;;;;;;;;;5043626;28;20052;-78
2021/12/21 00:21:55;;;;;;;13.82;6.13;;;;;;;;;;5041578;28;20477;-79
2021/12/21 00:24:29;;;;;;;12.15;5.38;;;;;;;;;;5036622;28;20384;-80
2021/12/21 00:26:56;;;;;;;9.82;5.63;;;;;;;;;;5033010;28;20124;-80
2021/12/21 00:29:23;;;;;;;8.20;5.15;;;;;;;;;;5035211;28;20485;-80
2021/12/21 00:31:50;;;;;;;10.50;5.53;;;;;;;;;;5035445;28;20053;-79
2021/12/21 00:34:17;;;;;;;10.57;5.43;;;;;;;;;;5034947;28;20554;-80
2021/12/21 00:36:46;;;;;;;8.02;5.38;;;;;;;;;;5034756;28;20570;-78
2021/12/21 00:39:16;;;;;;;9.55;5.18;;;;;;;;;;5031195;28;20100;-78
2021/12/21 00:41:42;;;;;;;12.20;5.43;;;;;;;;;;5038781;28;20132;-79
2021/12/21 00:44:09;;;;;;;10.18;5.15;;;;;;;;;;5038910;28;20067;-80
2021/12/21 00:46:38;;;;;;;9.00;4.90;;;;;;;;;;5039929;28;20111;-79
2021/12/21 00:49:13;;;;;;;9.07;4.90;;;;;;;;;;5038195;28;20508;-79
2021/12/21 00:51:41;;;;;;;9.02;4.60;;;;;;;;;;5038986;28;20481;-80
2021/12/21 00:54:08;;;;;;;9.20;4.97;;;;;;;;;;5039097;28;20046;-85
2021/12/21 00:56:36;;;;;;;9.60;5.13;;;;;;;;;;5038919;28;20470;-79
2021/12/21 00:59:04;;;;;;;8.48;4.80;;;;;;;;;;5038230;28;20042;-79
2021/12/21 01:01:31;;;;;;;8.05;4.47;;;;;;;;;;5038975;28;20053;-79
2021/12/21 01:03:59;;;;;;;8.20;4.60;;;;;;;;;;5038405;28;20554;-78
2021/12/21 01:06:38;;;;;;;9.82;4.97;;;;;;;;;;5039262;28;20175;-79
2021/12/21 01:09:11;;;;;;;8.02;4.50;;;;;;;;;;5038777;28;20053;-77
2021/12/21 01:11:43;;;;;;;8.95;5.07;;;;;;;;;;5038859;28;20567;-78
2021/12/21 01:14:39;;;;;;;8.35;4.60;;;;;;;;;;5038669;28;20045;-80
2021/12/21 01:17:09;;;;;;;8.40;4.75;;;;;;;;;;5037962;28;20045;-79
2021/12/21 01:19:39;;;;;;;9.32;4.72;;;;;;;;;;5052963;22;20041;-77
2021/12/21 01:22:14;;;;;;;10.85;4.93;;;;;;;;;;5055181;28;20048;-77
2021/12/21 01:25:01;;;;;;;9.75;5.40;;;;;;;;;;5055270;28;20553;-76
2021/12/21 01:27:40;;;;;;;10.27;5.60;;;;;;;;;;5055320;28;20060;-77
2021/12/21 01:30:15;;;;;;;9.48;5.53;;;;;;;;;;5056419;28;20072;-77
2021/12/21 01:32:58;;;;;;;10.40;6.30;;;;;;;;;;5054443;28;20045;-76
2021/12/21 01:35:30;;;;;;;11.80;6.72;;;;;;;;;;5054561;28;20064;-77
2021/12/21 01:38:02;;;;;;;16.45;7.30;;;;;;;;;;5054577;28;20139;-77
2021/12/21 01:40:38;;;;;;;11.77;6.30;;;;;;;;;;5054747;28;20084;-77
2021/12/21 01:43:24;;;;;;;10.18;6.20;;;;;;;;;;5056734;28;20053;-76
2021/12/21 01:51:28;;;;;;;12.00;5.88;;;;;;;;;;5054846;28;20056;-75
2021/12/21 01:53:55;;;;;;;10.00;5.75;;;;;;;;;;5054528;28;20111;-75
2021/12/21 01:56:23;;;;;;;11.65;6.60;;;;;;;;;;5053926;28;20044;-75
2021/12/21 01:58:52;;;;;;;9.63;6.65;;;;;;;;;;5054095;28;20117;-75
2021/12/21 02:01:22;;;;;;;11.05;6.72;;;;;;;;;;5054166;28;20052;-75
2021/12/21 02:03:50;;;;;;;10.80;6.15;;;;;;;;;;5054142;28;20102;-76
2021/12/21 02:06:19;;;;;;;11.30;6.32;;;;;;;;;;5053966;28;20645;-76
2021/12/21 02:08:46;;;;;;;11.07;6.35;;;;;;;;;;5053734;28;20573;-76
2021/12/21 02:11:14;;;;;;;9.73;6.15;;;;;;;;;;5053800;28;20049;-75
2021/12/21 02:13:45;;;;;;;10.40;6.07;;;;;;;;;;5054252;28;20104;-76
2021/12/21 02:16:19;;;;;;;9.07;5.55;;;;;;;;;;5053883;28;20049;-76
2021/12/21 02:18:51;;;;;;;11.85;6.00;;;;;;;;;;5053675;28;20041;-76
2021/12/21 02:21:27;;;;;;;11.43;6.72;;;;;;;;;;5054217;28;20110;-76
2021/12/21 02:24:02;;;;;;;13.63;6.82;;;;;;;;;;5053936;28;20401;-76
2021/12/21 02:26:48;;;;;;;12.27;6.60;;;;;;;;;;5053532;28;20080;-76
2021/12/21 02:29:25;;;;;;;13.25;7.25;;;;;;;;;;5053671;28;20053;-75
2021/12/21 02:31:53;;;;;;;11.02;6.03;;;;;;;;;;5053784;28;20049;-76
2021/12/21 02:34:21;;;;;;;14.80;6.63;;;;;;;;;;5053733;28;20048;-75
2021/12/21 02:36:51;;;;;;;13.82;6.82;;;;;;;;;;5054107;28;20045;-76
2021/12/21 02:39:19;;;;;;;10.32;6.78;;;;;;;;;;5053385;28;20052;-76
2021/12/21 02:41:46;;;;;;;12.93;6.53;;;;;;;;;;5053787;28;20107;-76
2021/12/21 02:44:14;;;;;;;11.18;6.63;;;;;;;;;;5053470;28;20041;-76
2021/12/21 02:46:41;;;;;;;9.32;6.43;;;;;;;;;;5053671;28;20048;-76
2021/12/21 02:49:09;;;;;;;10.90;6.18;;;;;;;;;;5052974;28;20041;-76
2021/12/21 02:51:39;;;;;;;15.45;6.57;;;;;;;;;;5053652;28;20399;-77
2021/12/21 02:54:07;;;;;;;13.68;6.53;;;;;;;;;;5053026;28;20071;-76
2021/12/21 02:56:34;;;;;;;11.75;6.28;;;;;;;;;;5053471;28;20048;-76
2021/12/21 02:59:00;;;;;;;11.13;6.90;;;;;;;;;;5052554;28;20053;-76
2021/12/21 03:01:28;;;;;;;11.00;6.35;;;;;;;;;;5052960;28;20452;-75
2021/12/21 03:03:55;;;;;;;11.60;6.55;;;;;;;;;;5052328;28;20049;-76
2021/12/21 03:06:57;;;;;;;11.65;6.60;;;;;;;;;;5052667;28;20045;-76
2021/12/21 03:12:31;;;;;;;11.75;6.60;;;;;;;;;;5041823;28;20052;-76
2021/12/21 03:14:58;;;;;;;9.57;6.22;;;;;;;;;;5053101;28;20045;-76
2021/12/21 03:17:25;;;;;;;10.20;6.28;;;;;;;;;;5052908;28;20048;-76
2021/12/21 03:19:52;;;;;;;9.80;5.78;;;;;;;;;;5052291;28;20515;-76
2021/12/21 03:22:18;;;;;;;10.98;6.65;;;;;;;;;;5053201;28;20053;-76
2021/12/21 03:24:47;;;;;;;11.50;6.50;;;;;;;;;;5052592;28;20400;-75
2021/12/21 03:27:14;;;;;;;10.45;6.35;;;;;;;;;;5052590;28;20045;-76
2021/12/21 03:29:40;;;;;;;9.68;6.57;;;;;;;;;;5052218;28;20057;-76
2021/12/21 03:32:08;;;;;;;11.52;7.50;;;;;;;;;;5053513;28;20057;-77
2021/12/21 03:34:35;;;;;;;11.10;6.30;;;;;;;;;;5053190;28;20045;-76
2021/12/21 03:37:04;;;;;;;12.65;6.88;;;;;;;;;;5053103;28;20098;-76
2021/12/21 03:39:31;;;;;;;11.75;7.05;;;;;;;;;;5052310;28;20059;-77
2021/12/21 03:42:00;;;;;;;10.75;7.30;;;;;;;;;;5053001;28;20130;-77
2021/12/21 03:44:27;;;;;;;12.43;6.32;;;;;;;;;;5052993;28;20151;-77
2021/12/21 03:46:56;;;;;;;9.82;5.68;;;;;;;;;;5052723;28;20044;-77
2021/12/21 03:52:08;;;;;;;10.63;7.18;;;;;;;;;;5039091;28;20132;-76
2021/12/21 03:54:36;;;;;;;12.00;7.68;;;;;;;;;;5055639;28;20048;-77
2021/12/21 03:57:06;;;;;;;10.02;6.97;;;;;;;;;;5057399;28;20063;-77
2021/12/21 03:59:33;;;;;;;12.02;6.82;;;;;;;;;;5052612;28;20041;-76
2021/12/21 04:02:00;;;;;;;9.85;6.53;;;;;;;;;;5052186;28;20060;-76
2021/12/21 04:04:27;;;;;;;14.32;7.40;;;;;;;;;;5051983;28;20132;-76
2021/12/21 04:06:54;;;;;;;12.13;7.28;;;;;;;;;;5052594;28;20041;-76
2021/12/21 04:09:21;;;;;;;10.88;6.72;;;;;;;;;;5051857;28;20107;-76
2021/12/21 04:11:48;;;;;;;11.05;6.80;;;;;;;;;;5052197;28;20045;-76
2021/12/21 04:14:17;;;;;;;11.20;7.22;;;;;;;;;;5051210;28;20496;-77
2021/12/21 04:16:44;;;;;;;13.82;7.20;;;;;;;;;;5051952;28;20045;-77
2021/12/21 04:19:12;;;;;;;12.18;6.97;;;;;;;;;;5051417;28;20053;-77
2021/12/21 04:21:39;;;;;;;12.63;7.50;;;;;;;;;;5052438;28;20053;-76
2021/12/21 04:24:06;;;;;;;12.20;7.45;;;;;;;;;;5057349;28;20052;-75
2021/12/21 04:26:33;;;;;;;14.35;8.65;;;;;;;;;;5055940;28;20546;-76
2021/12/21 04:29:00;;;;;;;14.80;7.47;;;;;;;;;;5051668;28;20423;-76
2021/12/21 04:31:28;;;;;;;11.80;6.82;;;;;;;;;;5052089;28;20053;-76
2021/12/21 04:33:55;;;;;;;14.23;7.47;;;;;;;;;;5051637;28;20049;-76
2021/12/21 04:36:22;;;;;;;15.35;7.47;;;;;;;;;;5052146;28;20080;-76
2021/12/21 04:38:51;;;;;;;13.90;7.65;;;;;;;;;;5052177;28;20514;-75
2021/12/21 04:41:23;;;;;;;12.00;7.68;;;;;;;;;;5053685;28;20095;-77
2021/12/21 04:43:51;;;;;;;11.05;6.72;;;;;;;;;;5051932;28;20052;-76
2021/12/21 04:46:17;;;;;;;12.35;7.15;;;;;;;;;;5051554;28;20049;-77
2021/12/21 04:48:46;;;;;;;11.52;7.63;;;;;;;;;;5051125;28;20458;-77
2021/12/21 04:51:13;;;;;;;11.88;7.25;;;;;;;;;;5051777;28;20041;-77
2021/12/21 04:53:40;;;;;;;11.75;7.60;;;;;;;;;;5051603;28;20095;-76
2021/12/21 04:56:08;;;;;;;12.32;7.50;;;;;;;;;;5051706;28;20187;-77
2021/12/21 04:58:35;;;;;;;11.38;7.72;;;;;;;;;;5051393;28;20045;-76
2021/12/21 05:01:02;;;;;;;12.07;7.82;;;;;;;;;;5051555;28;20454;-75
2021/12/21 05:03:29;;;;;;;12.88;8.43;;;;;;;;;;5051868;28;20049;-76
2021/12/21 05:05:57;;;;;;;16.30;8.40;;;;;;;;;;5051669;28;20049;-76
2021/12/21 05:08:26;;;;;;;19.80;8.95;;;;;;;;;;5051411;28;20049;-76
2021/12/21 05:10:58;;;;;;;18.15;9.65;;;;;;;;;;5051829;28;20073;-76
2021/12/21 05:13:27;;;;;;;16.58;8.57;;;;;;;;;;5051402;28;20045;-76
2021/12/21 05:15:54;;;;;;;14.45;8.48;;;;;;;;;;5051847;28;20098;-76
2021/12/21 05:18:21;;;;;;;11.85;8.15;;;;;;;;;;5051331;28;20130;-76
2021/12/21 05:20:48;;;;;;;13.48;8.65;;;;;;;;;;5051242;28;20503;-76
2021/12/21 05:23:17;;;;;;;11.88;7.15;;;;;;;;;;5051699;28;20056;-76
2021/12/21 05:25:44;;;;;;;11.63;8.27;;;;;;;;;;5051922;28;20587;-76
2021/12/21 05:28:14;;;;;;;13.27;7.70;;;;;;;;;;5055190;28;20056;-76
2021/12/21 05:30:41;;;;;;;11.57;6.88;;;;;;;;;;5055865;28;20400;-76
2021/12/21 05:33:09;;;;;;;10.23;6.80;;;;;;;;;;5055644;28;20045;-76
2021/12/21 05:35:37;;;;;;;11.60;7.47;;;;;;;;;;5055406;28;20049;-76
2021/12/21 05:38:06;;;;;;;12.20;7.65;;;;;;;;;;5055044;28;20128;-77
2021/12/21 05:40:38;;;;;;;15.75;8.07;;;;;;;;;;5055098;28;20049;-76
2021/12/21 05:43:06;;;;;;;12.75;7.30;;;;;;;;;;5055582;28;20080;-75
2021/12/21 05:45:33;;;;;;;12.20;7.13;;;;;;;;;;5055358;28;20041;-76
2021/12/21 05:48:00;;;;;;;14.35;7.43;;;;;;;;;;5055157;28;20045;-76
2021/12/21 05:50:27;;;;;;;12.73;7.88;;;;;;;;;;5054742;28;20122;-77
2021/12/21 05:52:54;;;;;;;15.25;8.40;;;;;;;;;;5054812;28;20446;-76
2021/12/21 05:55:21;;;;;;;12.88;7.50;;;;;;;;;;5055286;28;20045;-76
2021/12/21 05:57:50;;;;;;;11.45;7.25;;;;;;;;;;5055002;28;20045;-77
2021/12/21 06:00:20;;;;;;;12.18;7.07;;;;;;;;;;5055013;28;20041;-77
2021/12/21 06:02:47;;;;;;;14.35;8.15;;;;;;;;;;5055045;28;20393;-76
2021/12/21 06:05:13;;;;;;;11.27;6.80;;;;;;;;;;5054779;28;20114;-76
2021/12/21 06:07:40;;;;;;;11.20;7.18;;;;;;;;;;5054470;28;20138;-76
2021/12/21 06:10:13;;;;;;;13.10;7.45;;;;;;;;;;5054932;28;20049;-77
2021/12/21 06:12:57;;;;;;;14.18;7.85;;;;;;;;;;5055437;28;20063;-77
2021/12/21 06:15:35;;;;;;;11.23;7.95;;;;;;;;;;5054738;28;20079;-77
2021/12/21 06:26:23;;;;;;;11.77;7.05;;;;;;;;;;5065418;28;20427;-76
2021/12/21 06:28:51;;;;;;;11.85;7.28;;;;;;;;;;5074854;28;20059;-76
2021/12/21 06:31:19;;;;;;;11.60;7.15;;;;;;;;;;5076264;28;20103;-76
2021/12/21 06:33:46;;;;;;;13.55;8.52;;;;;;;;;;5077106;28;20076;-76
2021/12/21 06:36:14;;;;;;;12.70;8.15;;;;;;;;;;5074963;28;20045;-77
2021/12/21 06:38:41;;;;;;;11.40;8.20;;;;;;;;;;5072362;28;20252;-76
2021/12/21 06:41:08;;;;;;;16.45;8.45;;;;;;;;;;5076954;28;20079;-76
2021/12/21 06:43:35;;;;;;;13.95;8.10;;;;;;;;;;5076615;28;20053;-76
2021/12/21 06:46:10;;;;;;;14.18;8.25;;;;;;;;;;5076844;28;20049;-77
2021/12/21 06:51:30;;;;;;;13.68;8.68;;;;;;;;;;5076751;28;20067;-77
2021/12/21 06:53:59;;;;;;;15.18;7.97;;;;;;;;;;5076513;28;20079;-76
2021/12/21 06:56:27;;;;;;;11.18;8.27;;;;;;;;;;5066624;28;20082;-76
2021/12/21 06:58:55;;;;;;;13.35;8.52;;;;;;;;;;5076684;28;20055;-77
2021/12/21 07:01:22;;;;;;;15.15;8.55;;;;;;;;;;5076182;28;20037;-77
2021/12/21 07:03:51;;;;;;;12.40;8.27;;;;;;;;;;5077236;28;20049;-77
2021/12/21 07:06:20;;;;;;;12.20;8.18;;;;;;;;;;5075856;28;20059;-77
2021/12/21 07:08:53;;;;;;;12.20;8.38;;;;;;;;;;5074941;28;20057;-76
2021/12/21 07:11:27;;;;;;;14.05;8.25;;;;;;;;;;5075111;28;20041;-77
2021/12/21 07:19:25;;;;;;;12.80;7.70;;;;;;;;;;5073343;28;20048;-76
2021/12/21 07:21:52;;;;;;;13.35;8.73;;;;;;;;;;5073190;28;20377;-77
2021/12/21 07:24:19;;;;;;;11.88;8.23;;;;;;;;;;5074331;28;20033;-77
2021/12/21 07:26:46;;;;;;;14.35;9.75;;;;;;;;;;5072878;28;20112;-77
2021/12/21 07:29:13;;;;;;;13.18;8.15;;;;;;;;;;5070759;28;20036;-77
2021/12/21 07:31:41;;;;;;;14.13;9.02;;;;;;;;;;5071226;28;20053;-77
2021/12/21 07:34:08;;;;;;;16.58;9.63;;;;;;;;;;5059787;28;20040;-75
2021/12/21 07:36:36;;;;;;;15.18;9.88;;;;;;;;;;5051437;22;20053;-77
2021/12/21 07:39:06;;;;;;;13.88;9.70;;;;;;;;;;5033346;28;20052;-80
2021/12/21 07:41:33;;;;;;;15.68;9.88;;;;;;;;;;5033167;28;20049;-79
2021/12/21 07:44:00;;;;;;;16.08;9.90;;;;;;;;;;5033091;28;20053;-79
2021/12/21 07:46:27;;;;;;;16.48;9.15;;;;;;;;;;5033057;28;20131;-79
2021/12/21 07:48:54;;;;;;;14.88;9.07;;;;;;;;;;5032625;28;20045;-77
2021/12/21 07:51:22;;;;;;;14.77;9.60;;;;;;;;;;5034536;28;20056;-79
2021/12/21 07:53:51;;;;;;;18.33;9.25;;;;;;;;;;5032820;28;20088;-79
2021/12/21 07:56:18;;;;;;;13.50;8.68;;;;;;;;;;5032613;28;20503;-79
2021/12/21 07:58:45;;;;;;;13.57;8.65;;;;;;;;;;5033011;28;20057;-78
2021/12/21 08:01:13;;;;;;;14.85;9.32;;;;;;;;;;5032604;28;20566;-78
2021/12/21 08:03:40;;;;;;;14.68;9.00;;;;;;;;;;5029567;28;20045;-78
2021/12/21 08:06:11;;;;;;;16.98;9.70;;;;;;;;;;5030982;28;20053;-78
2021/12/21 08:08:41;;;;;;;14.40;9.07;;;;;;;;;;5031617;28;20050;-80
2021/12/21 08:11:13;;;;;;;13.73;8.85;;;;;;;;;;5037786;28;20040;-81
2021/12/21 08:13:43;;;;;;;14.68;8.73;;;;;;;;;;5041642;28;20068;-79
2021/12/21 08:16:11;;;;;;;13.82;9.18;;;;;;;;;;5033603;28;20041;-79
2021/12/21 08:18:38;;;;;;;13.88;8.48;;;;;;;;;;5032879;28;20113;-80
2021/12/21 08:21:05;;;;;;;13.98;9.07;;;;;;;;;;5032430;28;20108;-80
2021/12/21 08:23:33;;;;;;;15.35;10.05;;;;;;;;;;5036183;28;20774;-81
2021/12/21 08:26:00;;;;;;;13.35;8.88;;;;;;;;;;5035073;28;20107;-80
2021/12/21 08:28:28;;;;;;;15.63;9.50;;;;;;;;;;5033529;28;20050;-80
2021/12/21 08:30:55;;;;;;;17.13;9.55;;;;;;;;;;5032499;28;20501;-80
2021/12/21 08:33:21;;;;;;;14.70;9.25;;;;;;;;;;5034069;28;20523;-80
2021/12/21 08:35:48;;;;;;;13.43;9.45;;;;;;;;;;5034030;28;20083;-80
2021/12/21 08:38:18;;;;;;;16.60;9.68;;;;;;;;;;5033839;28;20076;-80
2021/12/21 08:40:49;;;;;;;17.13;10.05;;;;;;;;;;5035223;28;20049;-80
2021/12/21 08:43:17;;;;;;;;;;;;;;;;;;5038832;28;20052;-80
2021/12/21 08:45:47;;;;;;;16.63;9.35;;;;;;;;;;5034169;28;19921;-80
2021/12/21 08:48:16;;;;;;;17.35;9.73;;;;;;;;;;5034792;28;20112;-80
2021/12/21 08:50:44;;;;;;;15.38;9.35;;;;;;;;;;5038549;28;20566;-80
2021/12/21 08:53:12;;;;;;;18.75;10.60;;;;;;;;;;5042949;28;20049;-79
2021/12/21 08:55:40;;;;;;;15.32;9.15;;;;;;;;;;5050107;28;20053;-80
2021/12/21 08:58:08;;;;;;;17.58;9.63;;;;;;;;;;5050878;28;20080;-80
2021/12/21 09:00:34;;;;;;;18.35;10.90;;;;;;;;;;5053410;28;20076;-80
2021/12/21 09:03:03;;;;;;;18.35;10.82;;;;;;;;;;5049398;28;20076;-80
2021/12/21 09:05:31;;;;;;;22.67;12.18;;;;;;;;;;5041159;28;20115;-80
2021/12/21 09:07:59;;;;;;;32.15;17.30;;;;;;;;;;5035799;28;20068;-80
2021/12/21 09:10:27;;;;;;;22.38;13.35;;;;;;;;;;5035350;28;20045;-80
2021/12/21 09:12:54;;;;;;;19.67;10.25;;;;;;;;;;5035375;28;20056;-80
2021/12/21 09:15:22;;;;;;;16.83;9.68;;;;;;;;;;5035237;28;20045;-80
2021/12/21 09:17:50;;;;;;;18.15;10.73;;;;;;;;;;5035226;28;20132;-80
2021/12/21 09:20:21;;;;;;;17.88;10.70;;;;;;;;;;5034757;28;20041;-80
2021/12/21 09:22:48;;;;;;;;;;;;;;;;;;5036312;28;20084;-80
2021/12/21 09:25:15;;;;;;;16.92;9.32;;;;;;;;;;5036467;28;19986;-81
2021/12/21 09:27:42;;;;;;;17.30;10.02;;;;;;;;;;5036054;28;20533;-81
2021/12/21 09:30:11;;;;;;;15.57;11.00;;;;;;;;;;5037611;28;20461;-80
2021/12/21 09:32:39;;;;;;;15.38;9.65;;;;;;;;;;5039313;28;20092;-81
2021/12/21 09:35:06;;;;;;;19.08;10.52;;;;;;;;;;5038822;28;20045;-81
2021/12/21 09:37:35;;;;;;;22.40;13.07;;;;;;;;;;5038404;28;20056;-80
2021/12/21 09:40:05;;;;;;;33.20;17.67;;;;;;;;;;5038334;28;20080;-81
2021/12/21 09:42:33;;;;;;;19.90;12.57;;;;;;;;;;5039801;28;20088;-80
2021/12/21 09:45:01;;;;;;;20.80;11.77;;;;;;;;;;5036549;28;20107;-81
2021/12/21 09:47:28;;;;;;;20.42;12.48;;;;;;;;;;5035633;28;20045;-84
2021/12/21 09:49:56;;;;;;;21.30;11.52;;;;;;;;;;5035237;28;20061;-81
2021/12/21 09:52:29;;;;;;;19.23;11.80;;;;;;;;;;5035186;28;20056;-79
2021/12/21 09:54:58;;;;;;;24.00;13.98;;;;;;;;;;5034966;28;20046;-80
2021/12/21 09:57:25;;;;;;;23.17;12.63;;;;;;;;;;5032495;28;20492;-79
2021/12/21 09:59:52;;;;;;;25.05;14.02;;;;;;;;;;5038663;28;20103;-80
2021/12/21 10:02:22;;;;;;;24.92;13.98;;;;;;;;;;5049935;28;20095;-80
2021/12/21 10:04:50;;;;;;;23.45;13.75;;;;;;;;;;5052115;28;20054;-80
2021/12/21 10:07:18;;;;;;;28.92;15.48;;;;;;;;;;5053013;28;20049;-81
2021/12/21 10:09:47;;;;;;;34.92;18.35;;;;;;;;;;5044592;28;20100;-80
2021/12/21 10:12:26;;;;;;;28.42;13.98;;;;;;;;;;5036894;28;20045;-79
2021/12/21 10:15:01;;;;;;;30.83;16.15;;;;;;;;;;5036889;28;20504;-80
2021/12/21 10:17:31;;;;;;;28.23;14.48;;;;;;;;;;5032924;28;20041;-81
2021/12/21 10:19:58;;;;;;;25.92;13.00;;;;;;;;;;5037475;28;20065;-80
2021/12/21 10:22:25;;;;;;;23.00;12.38;;;;;;;;;;5035660;28;20199;-82
2021/12/21 10:24:53;;;;;;;22.30;12.00;;;;;;;;;;5038395;28;20077;-80
2021/12/21 10:27:24;;;;;;;21.73;12.45;;;;;;;;;;5037292;28;20081;-82
2021/12/21 10:29:54;;;;;;;22.85;11.40;;;;;;;;;;5037608;28;20077;-80
2021/12/21 10:32:23;;;;;;;20.67;11.77;;;;;;;;;;5036374;28;20365;-80
2021/12/21 10:34:52;;;;;;;19.20;11.00;;;;;;;;;;5036050;28;20060;-81
2021/12/21 10:37:26;;;;;;;23.83;12.10;;;;;;;;;;5036124;28;20134;-81
2021/12/21 10:40:09;;;;;;;23.00;10.80;;;;;;;;;;5034123;28;20045;-81
2021/12/21 10:42:48;;;;;;;22.30;11.85;;;;;;;;;;5033379;28;20136;-80
2021/12/21 10:45:15;;;;;;;19.45;10.77;;;;;;;;;;5033364;28;20547;-81
2021/12/21 10:47:44;;;;;;;17.58;10.07;;;;;;;;;;5035083;28;20056;-81
2021/12/21 10:50:12;;;;;;;19.10;10.40;;;;;;;;;;5035243;28;20415;-81
2021/12/21 10:52:41;;;;;;;20.38;10.82;;;;;;;;;;5035342;28;20048;-81
2021/12/21 10:55:09;;;;;;;24.45;11.15;;;;;;;;;;5035409;28;20488;-81
2021/12/21 10:57:36;;;;;;;23.77;13.40;;;;;;;;;;5054650;28;20084;-80
2021/12/21 11:00:13;;;;;;;26.90;13.93;;;;;;;;;;5053593;28;20060;-81
2021/12/21 11:02:41;;;;;;;24.02;12.00;;;;;;;;;;5041858;28;20080;-80
2021/12/21 11:05:11;;;;;;;26.38;11.88;;;;;;;;;;5038285;28;20052;-79
2021/12/21 11:07:45;;;;;;;21.43;10.87;;;;;;;;;;5035461;28;20050;-79
2021/12/21 11:10:15;;;;;;;18.85;10.68;;;;;;;;;;5034485;28;20382;-79
2021/12/21 11:12:44;;;;;;;22.63;11.77;;;;;;;;;;5033976;28;20519;-79
2021/12/21 11:15:13;;;;;;;24.60;11.77;;;;;;;;;;5035331;28;20574;-78
2021/12/21 11:17:41;;;;;;;22.90;12.02;;;;;;;;;;5035092;28;20045;-82
2021/12/21 11:20:10;;;;;;;24.52;11.55;;;;;;;;;;5034889;28;20096;-79
2021/12/21 11:22:39;;;;;;;27.48;13.07;;;;;;;;;;5033486;28;20045;-82
2021/12/21 11:25:08;;;;;;;28.17;12.93;;;;;;;;;;5029802;28;20091;-80
2021/12/21 11:27:37;;;;;;;24.90;11.18;;;;;;;;;;5033299;28;20045;-80
2021/12/21 11:30:07;;;;;;;27.08;11.93;;;;;;;;;;5031881;28;20713;-79
2021/12/21 11:32:39;;;;;;;29.40;13.15;;;;;;;;;;5032596;28;20103;-80
2021/12/21 11:37:55;;;;;;;21.75;11.50;;;;;;;;;;5032472;28;20126;-80
2021/12/21 11:40:24;;;;;;;21.30;12.05;;;;;;;;;;5032744;28;20045;-79
2021/12/21 11:43:14;;;;;;;22.48;10.82;;;;;;;;;;5034124;28;20605;-80
2021/12/21 11:45:49;;;;;;;24.25;13.23;;;;;;;;;;5031908;28;20049;-80
2021/12/21 11:48:24;;;;;;;22.52;11.73;;;;;;;;;;5031315;28;20041;-79
2021/12/21 11:50:51;;;;;;;27.40;13.18;;;;;;;;;;5031605;28;20049;-80
2021/12/21 11:53:21;;;;;;;24.77;11.68;;;;;;;;;;5033442;28;20049;-79
2021/12/21 11:55:51;;;;;;;25.60;12.38;;;;;;;;;;5033250;28;20480;-80
2021/12/21 11:58:21;;;;;;;23.05;11.15;;;;;;;;;;5033152;28;20057;-80
2021/12/21 12:00:51;;;;;;;24.38;10.75;;;;;;;;;;5033079;28;20407;-79
2021/12/21 12:03:23;;;;;;;23.05;11.40;;;;;;;;;;5034039;28;20122;-80
2021/12/21 12:05:57;;;;;;;19.75;10.95;;;;;;;;;;5033257;28;20428;-79
2021/12/21 12:08:26;;;;;;;24.70;11.57;;;;;;;;;;5031823;28;20044;-79
2021/12/21 12:10:56;;;;;;;23.30;11.90;;;;;;;;;;5034722;28;20080;-79
2021/12/21 12:13:29;;;;;;;23.40;10.52;;;;;;;;;;5033375;28;20079;-79
2021/12/21 12:15:58;;;;;;;22.10;10.95;;;;;;;;;;5033770;28;20140;-81
2021/12/21 12:18:28;;;;;;;21.50;10.88;;;;;;;;;;5033547;28;20471;-80
2021/12/21 12:20:55;;;;;;;24.43;11.47;;;;;;;;;;5034491;28;20053;-83
2021/12/21 12:23:23;;;;;;;23.00;11.10;;;;;;;;;;5033309;28;20099;-79
2021/12/21 12:25:52;;;;;;;21.00;11.02;;;;;;;;;;5033041;28;20424;-78
2021/12/21 12:28:25;;;;;;;21.90;10.73;;;;;;;;;;5033722;28;20052;-83
2021/12/21 12:30:52;;;;;;;23.52;10.55;;;;;;;;;;5038949;28;20053;-80
2021/12/21 12:33:19;;;;;;;21.20;11.25;;;;;;;;;;5034366;28;20267;-80
2021/12/21 12:35:48;;;;;;;21.95;11.68;;;;;;;;;;5034640;28;20045;-80
2021/12/21 12:38:19;;;;;;;21.75;11.18;;;;;;;;;;5037547;28;20041;-80
2021/12/21 12:40:46;;;;;;;;;;;;;;;;;;5037428;28;20099;-80
2021/12/21 12:43:17;;;;;;;23.35;12.05;;;;;;;;;;5037827;28;19967;-80
2021/12/21 12:45:49;;;;;;;24.58;11.48;;;;;;;;;;5038731;28;20049;-80
2021/12/21 12:48:22;;;;;;;22.75;11.82;;;;;;;;;;5038772;28;20080;-80
2021/12/21 12:50:51;;;;;;;24.85;12.60;;;;;;;;;;5039387;28;20088;-80
2021/12/21 12:53:18;;;;;;;24.75;13.02;;;;;;;;;;5039784;28;20050;-80
2021/12/21 12:55:53;;;;;;;23.20;12.50;;;;;;;;;;5042297;28;20095;-81
2021/12/21 12:58:23;;;;;;;21.73;11.68;;;;;;;;;;5043383;28;20103;-81
2021/12/21 13:00:56;;;;;;;24.63;11.30;;;;;;;;;;5038743;28;20046;-80
2021/12/21 13:03:32;;;;;;;24.27;11.25;;;;;;;;;;5038100;28;20188;-80
2021/12/21 13:06:01;;;;;;;23.90;12.32;;;;;;;;;;5051555;28;20041;-80
2021/12/21 13:08:30;;;;;;;24.58;13.13;;;;;;;;;;5054282;28;20042;-80
2021/12/21 13:10:58;;;;;;;23.58;11.25;;;;;;;;;;5054855;28;20046;-80
2021/12/21 13:13:33;;;;;;;20.88;11.30;;;;;;;;;;5050918;28;20037;-80
2021/12/21 13:16:05;;;;;;;22.95;13.43;;;;;;;;;;5048194;28;20053;-80
2021/12/21 13:18:32;;;;;;;17.73;10.93;;;;;;;;;;5049895;28;20637;-81
2021/12/21 13:21:00;;;;;;;24.00;12.55;;;;;;;;;;5050510;28;20573;-80
2021/12/21 13:23:29;;;;;;;29.20;14.93;;;;;;;;;;5051597;28;20037;-80
2021/12/21 13:26:01;;;;;;;28.58;14.63;;;;;;;;;;5051244;28;20080;-80
2021/12/21 13:28:29;;;;;;;24.70;13.18;;;;;;;;;;5042869;28;20103;-80
2021/12/21 13:30:57;;;;;;;24.83;13.27;;;;;;;;;;5039154;28;20491;-80
2021/12/21 13:33:26;;;;;;;24.88;12.88;;;;;;;;;;5038786;28;20125;-80
2021/12/21 13:35:55;;;;;;;22.92;12.00;;;;;;;;;;5038114;28;20033;-80
2021/12/21 13:38:25;;;;;;;24.65;12.30;;;;;;;;;;5034684;28;20111;-80
2021/12/21 13:41:00;;;;;;;25.48;13.02;;;;;;;;;;5035306;28;20136;-79
2021/12/21 13:43:27;;;;;;;24.30;13.07;;;;;;;;;;5034859;28;20041;-81
2021/12/21 13:45:59;;;;;;;25.48;12.85;;;;;;;;;;5048407;28;20053;-80
2021/12/21 13:48:26;;;;;;;29.75;13.13;;;;;;;;;;5051835;28;20049;-78
2021/12/21 13:50:52;;;;;;;25.65;14.35;;;;;;;;;;5035580;28;20049;-80
2021/12/21 13:53:20;;;;;;;24.77;13.75;;;;;;;;;;5034178;28;20049;-80
2021/12/21 13:55:53;;;;;;;22.60;12.77;;;;;;;;;;5034463;28;20107;-80
2021/12/21 13:58:22;;;;;;;26.05;13.50;;;;;;;;;;5033558;28;20046;-80
2021/12/21 14:00:54;;;;;;;21.42;12.23;;;;;;;;;;5034138;28;20049;-80
2021/12/21 14:03:31;;;;;;;24.02;13.02;;;;;;;;;;5034118;28;20053;-80
2021/12/21 14:06:10;;;;;;;27.80;13.95;;;;;;;;;;5034062;28;20049;-79
2021/12/21 14:08:38;;;;;;;22.92;13.07;;;;;;;;;;5034240;28;20128;-80
2021/12/21 14:11:08;;;;;;;25.27;12.95;;;;;;;;;;5034025;28;20061;-80
2021/12/21 14:13:36;;;;;;;23.27;12.23;;;;;;;;;;5034192;28;20041;-80
2021/12/21 14:16:08;;;;;;;28.42;14.82;;;;;;;;;;5033887;28;20060;-81
2021/12/21 14:18:36;;;;;;;41.03;22.08;;;;;;;;;;5033708;28;20077;-81
2021/12/21 14:21:07;;;;;;;28.67;14.55;;;;;;;;;;5033469;28;20095;-80
2021/12/21 14:23:36;;;;;;;24.10;12.00;;;;;;;;;;5033757;28;20049;-80
2021/12/21 14:26:09;;;;;;;26.85;15.55;;;;;;;;;;5033338;28;20053;-80
2021/12/21 14:28:47;;;;;;;26.60;13.75;;;;;;;;;;5033179;28;20053;-79
2021/12/21 14:31:15;;;;;;;28.42;14.50;;;;;;;;;;5032732;28;20045;-79
2021/12/21 14:33:48;;;;;;;26.95;12.43;;;;;;;;;;5033073;28;20049;-79
2021/12/21 14:36:16;;;;;;;25.90;12.60;;;;;;;;;;5032600;28;20054;-80
2021/12/21 14:38:54;;;;;;;25.65;12.55;;;;;;;;;;5032468;28;20476;-80
2021/12/21 14:41:25;;;;;;;25.38;11.90;;;;;;;;;;5033160;28;20504;-82
2021/12/21 14:44:07;;;;;;;22.83;11.88;;;;;;;;;;5032664;28;20053;-79
2021/12/21 14:46:35;;;;;;;21.20;12.55;;;;;;;;;;5032355;28;20045;-79
2021/12/21 14:49:05;;;;;;;25.20;12.90;;;;;;;;;;5032355;28;20402;-79
2021/12/21 14:51:38;;;;;;;22.30;12.73;;;;;;;;;;5032892;28;20049;-79
2021/12/21 14:54:07;;;;;;;20.45;12.52;;;;;;;;;;5032964;28;20745;-79
2021/12/21 14:56:38;;;;;;;21.35;11.68;;;;;;;;;;5032193;28;20049;-80
2021/12/21 14:59:07;;;;;;;23.52;12.38;;;;;;;;;;5031377;28;20054;-79
2021/12/21 15:01:41;;;;;;;21.88;11.57;;;;;;;;;;5031988;28;20116;-78
2021/12/21 15:04:21;;;;;;;23.58;11.60;;;;;;;;;;5029964;28;20041;-79
2021/12/21 15:06:48;;;;;;;22.67;11.85;;;;;;;;;;5032925;28;20041;-79
2021/12/21 15:09:15;;;;;;;20.63;11.75;;;;;;;;;;5031695;28;20038;-79
2021/12/21 15:11:48;;;;;;;22.60;12.35;;;;;;;;;;5032625;28;20046;-78